Main page
METAR-TAF:

METAR-TAF

Airports :

Kassel Airport

Kassel, Germany

latitude: 51-24N, longitude: 009-23E, elevation: 277 m

Current weather observation

The report was made 24 minutes ago, at 13:50 UTC
Wind 12 kt from the East/Southeast
Temperature 17°C
Humidity 32%
Pressure 1023 hPa
Visibility 10 km or more
no clouds below 1500 m and no cumulonimbus

METAR: EDVK 051350Z 12012KT CAVOK 17/00 Q1023

Time: 16:14 (14:14 UTC)

Forecast

The report was made 3 hours and 14 minutes ago, at 11:00 UTC
Forecast valid from 05 at 12 UTC to 05 at 21 UTC
Wind 10 kt from the East/Southeast
Visibility 10 km or more
no clouds below 1500 m and no cumulonimbus
Becoming
from 05 at 18 UTC to 05 at 20 UTC
Wind 5 kt from the Southeast

TAF: EDVK 051100Z 0512/0521 12010KT CAVOK BECMG 0518/0520 13005KT

Weather observations and forecasts of more than 4000 airports (METAR and TAF reports).

The available stations are represented by yellow and red dots on the map.

Hover mouse over dot to see the name of the station.

Then click to see weather observations and forecasts.

To change the map : click on the green buttons with a black cross to zoom in, on the green button with a dash to zoom out, or on the green arrows for adjacent maps.


METAR-TAF: